sensor_id;sensor_type;location;lat;lon;timestamp;P1;durP1;ratioP1;P2;durP2;ratioP2
52067;SDS011;60237;52.338;21.228;2023-03-01T00:02:26;157.70;;;44.13;;
52067;SDS011;60237;52.338;21.228;2023-03-01T00:04:53;123.25;;;38.10;;
52067;SDS011;60237;52.338;21.228;2023-03-01T00:07:19;123.03;;;42.50;;
52067;SDS011;60237;52.338;21.228;2023-03-01T00:09:46;122.25;;;41.58;;
52067;SDS011;60237;52.338;21.228;2023-03-01T00:12:13;127.50;;;39.28;;
52067;SDS011;60237;52.338;21.228;2023-03-01T00:14:39;127.65;;;41.35;;
52067;SDS011;60237;52.338;21.228;2023-03-01T00:17:06;98.80;;;37.80;;
52067;SDS011;60237;52.338;21.228;2023-03-01T00:19:35;124.28;;;39.53;;
52067;SDS011;60237;52.338;21.228;2023-03-01T00:22:01;122.13;;;38.38;;
52067;SDS011;60237;52.338;21.228;2023-03-01T00:24:28;133.15;;;39.92;;
52067;SDS011;60237;52.338;21.228;2023-03-01T00:26:54;119.45;;;38.63;;
52067;SDS011;60237;52.338;21.228;2023-03-01T00:29:25;131.85;;;37.85;;
52067;SDS011;60237;52.338;21.228;2023-03-01T00:31:52;113.05;;;37.85;;
52067;SDS011;60237;52.338;21.228;2023-03-01T00:34:18;119.40;;;38.03;;
52067;SDS011;60237;52.338;21.228;2023-03-01T00:36:45;126.50;;;37.50;;
52067;SDS011;60237;52.338;21.228;2023-03-01T00:39:12;109.20;;;38.63;;
52067;SDS011;60237;52.338;21.228;2023-03-01T00:41:39;102.18;;;36.53;;
52067;SDS011;60237;52.338;21.228;2023-03-01T00:44:07;117.97;;;38.60;;
52067;SDS011;60237;52.338;21.228;2023-03-01T00:46:34;107.00;;;35.33;;
52067;SDS011;60237;52.338;21.228;2023-03-01T00:49:01;106.18;;;35.03;;
52067;SDS011;60237;52.338;21.228;2023-03-01T00:51:28;112.72;;;36.33;;
52067;SDS011;60237;52.338;21.228;2023-03-01T00:53:56;234.18;;;44.13;;
52067;SDS011;60237;52.338;21.228;2023-03-01T00:56:27;131.52;;;37.45;;
52067;SDS011;60237;52.338;21.228;2023-03-01T00:58:54;127.10;;;39.95;;
52067;SDS011;60237;52.338;21.228;2023-03-01T01:01:21;98.18;;;36.17;;
52067;SDS011;60237;52.338;21.228;2023-03-01T01:03:50;122.43;;;40.05;;
52067;SDS011;60237;52.338;21.228;2023-03-01T01:06:21;130.68;;;39.22;;
52067;SDS011;60237;52.338;21.228;2023-03-01T01:08:48;118.40;;;37.83;;
52067;SDS011;60237;52.338;21.228;2023-03-01T01:11:15;110.72;;;36.35;;
52067;SDS011;60237;52.338;21.228;2023-03-01T01:13:43;102.18;;;33.20;;
52067;SDS011;60237;52.338;21.228;2023-03-01T01:16:10;104.35;;;37.30;;
52067;SDS011;60237;52.338;21.228;2023-03-01T01:18:36;118.30;;;34.25;;
52067;SDS011;60237;52.338;21.228;2023-03-01T01:21:04;124.47;;;36.05;;
52067;SDS011;60237;52.338;21.228;2023-03-01T01:23:31;88.20;;;32.45;;
52067;SDS011;60237;52.338;21.228;2023-03-01T01:25:57;114.07;;;34.13;;
52067;SDS011;60237;52.338;21.228;2023-03-01T01:28:24;121.07;;;36.05;;
52067;SDS011;60237;52.338;21.228;2023-03-01T01:30:50;108.10;;;34.92;;
52067;SDS011;60237;52.338;21.228;2023-03-01T01:33:16;110.90;;;35.28;;
52067;SDS011;60237;52.338;21.228;2023-03-01T01:35:45;116.05;;;36.10;;
52067;SDS011;60237;52.338;21.228;2023-03-01T01:38:11;136.13;;;39.80;;
52067;SDS011;60237;52.338;21.228;2023-03-01T01:40:44;103.78;;;33.53;;
52067;SDS011;60237;52.338;21.228;2023-03-01T01:43:32;89.70;;;31.30;;
52067;SDS011;60237;52.338;21.228;2023-03-01T01:48:45;86.43;;;31.27;;
52067;SDS011;60237;52.338;21.228;2023-03-01T01:51:14;118.07;;;34.20;;
52067;SDS011;60237;52.338;21.228;2023-03-01T01:53:43;87.70;;;31.80;;
52067;SDS011;60237;52.338;21.228;2023-03-01T01:56:10;99.82;;;31.05;;
52067;SDS011;60237;52.338;21.228;2023-03-01T01:58:38;105.10;;;32.45;;
52067;SDS011;60237;52.338;21.228;2023-03-01T02:01:06;85.00;;;31.10;;
52067;SDS011;60237;52.338;21.228;2023-03-01T02:03:33;93.45;;;31.05;;
52067;SDS011;60237;52.338;21.228;2023-03-01T02:06:04;125.30;;;33.15;;
52067;SDS011;60237;52.338;21.228;2023-03-01T02:08:33;91.55;;;30.75;;
52067;SDS011;60237;52.338;21.228;2023-03-01T02:11:01;83.00;;;29.83;;
52067;SDS011;60237;52.338;21.228;2023-03-01T02:13:30;106.03;;;30.42;;
52067;SDS011;60237;52.338;21.228;2023-03-01T02:15:57;96.55;;;31.05;;
52067;SDS011;60237;52.338;21.228;2023-03-01T02:18:24;113.38;;;31.73;;
52067;SDS011;60237;52.338;21.228;2023-03-01T02:23:21;92.45;;;30.60;;
52067;SDS011;60237;52.338;21.228;2023-03-01T02:26:08;94.63;;;31.25;;
52067;SDS011;60237;52.338;21.228;2023-03-01T02:28:38;99.70;;;30.35;;
52067;SDS011;60237;52.338;21.228;2023-03-01T02:31:05;104.22;;;32.17;;
52067;SDS011;60237;52.338;21.228;2023-03-01T02:33:55;111.25;;;32.28;;
52067;SDS011;60237;52.338;21.228;2023-03-01T02:36:26;115.00;;;33.10;;
52067;SDS011;60237;52.338;21.228;2023-03-01T02:38:56;107.53;;;32.70;;
52067;SDS011;60237;52.338;21.228;2023-03-01T02:41:23;88.07;;;29.70;;
52067;SDS011;60237;52.338;21.228;2023-03-01T02:43:50;127.03;;;33.75;;
52067;SDS011;60237;52.338;21.228;2023-03-01T02:46:22;107.93;;;30.45;;
52067;SDS011;60237;52.338;21.228;2023-03-01T02:48:50;95.28;;;30.75;;
52067;SDS011;60237;52.338;21.228;2023-03-01T02:56:44;82.75;;;29.52;;
52067;SDS011;60237;52.338;21.228;2023-03-01T02:59:16;91.63;;;29.15;;
52067;SDS011;60237;52.338;21.228;2023-03-01T03:01:44;107.25;;;30.40;;
52067;SDS011;60237;52.338;21.228;2023-03-01T03:04:16;111.47;;;31.45;;
52067;SDS011;60237;52.338;21.228;2023-03-01T03:06:47;112.95;;;31.23;;
52067;SDS011;60237;52.338;21.228;2023-03-01T03:09:14;101.65;;;30.30;;
52067;SDS011;60237;52.338;21.228;2023-03-01T03:11:42;97.03;;;29.77;;
52067;SDS011;60237;52.338;21.228;2023-03-01T03:14:09;90.35;;;30.58;;
52067;SDS011;60237;52.338;21.228;2023-03-01T03:16:42;101.63;;;30.23;;
52067;SDS011;60237;52.338;21.228;2023-03-01T03:19:09;92.05;;;30.48;;
52067;SDS011;60237;52.338;21.228;2023-03-01T03:21:35;90.55;;;29.60;;
52067;SDS011;60237;52.338;21.228;2023-03-01T03:24:02;100.85;;;31.02;;
52067;SDS011;60237;52.338;21.228;2023-03-01T03:26:29;85.97;;;29.02;;
52067;SDS011;60237;52.338;21.228;2023-03-01T03:28:56;111.53;;;30.60;;
52067;SDS011;60237;52.338;21.228;2023-03-01T03:31:23;93.45;;;29.33;;
52067;SDS011;60237;52.338;21.228;2023-03-01T03:33:49;99.88;;;29.08;;
52067;SDS011;60237;52.338;21.228;2023-03-01T03:36:20;120.88;;;31.35;;
52067;SDS011;60237;52.338;21.228;2023-03-01T03:38:47;97.50;;;30.70;;
52067;SDS011;60237;52.338;21.228;2023-03-01T03:41:13;98.30;;;30.35;;
52067;SDS011;60237;52.338;21.228;2023-03-01T03:43:40;95.60;;;30.27;;
52067;SDS011;60237;52.338;21.228;2023-03-01T03:46:09;99.38;;;28.75;;
52067;SDS011;60237;52.338;21.228;2023-03-01T03:48:40;85.38;;;28.95;;
52067;SDS011;60237;52.338;21.228;2023-03-01T03:51:09;106.15;;;31.67;;
52067;SDS011;60237;52.338;21.228;2023-03-01T03:53:36;91.78;;;29.15;;
52067;SDS011;60237;52.338;21.228;2023-03-01T03:56:02;80.00;;;28.30;;
52067;SDS011;60237;52.338;21.228;2023-03-01T03:58:31;121.57;;;31.92;;
52067;SDS011;60237;52.338;21.228;2023-03-01T04:00:58;96.47;;;30.17;;
52067;SDS011;60237;52.338;21.228;2023-03-01T04:03:27;97.20;;;30.13;;
52067;SDS011;60237;52.338;21.228;2023-03-01T04:05:54;130.68;;;31.17;;
52067;SDS011;60237;52.338;21.228;2023-03-01T04:08:21;103.22;;;29.70;;
52067;SDS011;60237;52.338;21.228;2023-03-01T04:10:49;90.22;;;29.88;;
52067;SDS011;60237;52.338;21.228;2023-03-01T04:13:18;87.93;;;28.85;;
52067;SDS011;60237;52.338;21.228;2023-03-01T04:15:46;97.80;;;30.23;;
52067;SDS011;60237;52.338;21.228;2023-03-01T04:18:13;97.97;;;28.30;;
52067;SDS011;60237;52.338;21.228;2023-03-01T04:20:40;109.38;;;30.38;;
52067;SDS011;60237;52.338;21.228;2023-03-01T04:23:08;78.35;;;28.58;;
52067;SDS011;60237;52.338;21.228;2023-03-01T04:25:46;86.68;;;29.13;;
52067;SDS011;60237;52.338;21.228;2023-03-01T04:28:15;111.97;;;32.08;;
52067;SDS011;60237;52.338;21.228;2023-03-01T04:30:43;75.07;;;27.52;;
52067;SDS011;60237;52.338;21.228;2023-03-01T04:33:10;128.23;;;32.03;;
52067;SDS011;60237;52.338;21.228;2023-03-01T04:35:37;83.45;;;30.65;;
52067;SDS011;60237;52.338;21.228;2023-03-01T04:38:04;90.60;;;29.55;;
52067;SDS011;60237;52.338;21.228;2023-03-01T04:40:31;106.78;;;29.92;;
52067;SDS011;60237;52.338;21.228;2023-03-01T04:42:58;94.03;;;31.30;;
52067;SDS011;60237;52.338;21.228;2023-03-01T04:45:25;90.45;;;29.58;;
52067;SDS011;60237;52.338;21.228;2023-03-01T04:47:51;98.55;;;30.25;;
52067;SDS011;60237;52.338;21.228;2023-03-01T04:50:19;107.60;;;30.58;;
52067;SDS011;60237;52.338;21.228;2023-03-01T04:52:49;96.50;;;30.38;;
52067;SDS011;60237;52.338;21.228;2023-03-01T04:55:16;106.25;;;31.45;;
52067;SDS011;60237;52.338;21.228;2023-03-01T04:57:42;90.20;;;31.42;;
52067;SDS011;60237;52.338;21.228;2023-03-01T05:00:13;100.82;;;29.98;;
52067;SDS011;60237;52.338;21.228;2023-03-01T05:02:56;120.07;;;32.33;;
52067;SDS011;60237;52.338;21.228;2023-03-01T05:05:26;83.63;;;31.38;;
52067;SDS011;60237;52.338;21.228;2023-03-01T05:07:54;125.03;;;32.63;;
52067;SDS011;60237;52.338;21.228;2023-03-01T05:10:21;97.43;;;28.25;;
52067;SDS011;60237;52.338;21.228;2023-03-01T05:12:48;93.63;;;30.27;;
52067;SDS011;60237;52.338;21.228;2023-03-01T05:15:14;114.53;;;31.73;;
52067;SDS011;60237;52.338;21.228;2023-03-01T05:17:41;90.13;;;28.55;;
52067;SDS011;60237;52.338;21.228;2023-03-01T05:20:08;85.72;;;29.42;;
52067;SDS011;60237;52.338;21.228;2023-03-01T05:22:35;98.22;;;29.45;;
52067;SDS011;60237;52.338;21.228;2023-03-01T05:25:02;96.13;;;29.55;;
52067;SDS011;60237;52.338;21.228;2023-03-01T05:27:29;97.75;;;29.00;;
52067;SDS011;60237;52.338;21.228;2023-03-01T05:29:56;99.60;;;29.85;;
52067;SDS011;60237;52.338;21.228;2023-03-01T05:32:22;87.38;;;27.77;;
52067;SDS011;60237;52.338;21.228;2023-03-01T05:34:49;93.63;;;29.70;;
52067;SDS011;60237;52.338;21.228;2023-03-01T05:37:15;109.95;;;32.70;;
52067;SDS011;60237;52.338;21.228;2023-03-01T05:39:41;107.82;;;29.13;;
52067;SDS011;60237;52.338;21.228;2023-03-01T05:42:09;109.90;;;29.60;;
52067;SDS011;60237;52.338;21.228;2023-03-01T05:44:36;97.38;;;30.70;;
52067;SDS011;60237;52.338;21.228;2023-03-01T05:47:02;97.93;;;29.83;;
52067;SDS011;60237;52.338;21.228;2023-03-01T05:49:29;83.72;;;29.90;;
52067;SDS011;60237;52.338;21.228;2023-03-01T05:51:56;93.93;;;30.73;;
52067;SDS011;60237;52.338;21.228;2023-03-01T05:54:22;115.90;;;32.30;;
52067;SDS011;60237;52.338;21.228;2023-03-01T05:56:49;100.40;;;34.20;;
52067;SDS011;60237;52.338;21.228;2023-03-01T05:59:15;114.97;;;36.17;;
52067;SDS011;60237;52.338;21.228;2023-03-01T06:01:42;145.20;;;40.35;;
52067;SDS011;60237;52.338;21.228;2023-03-01T06:04:09;143.70;;;40.83;;
52067;SDS011;60237;52.338;21.228;2023-03-01T06:06:36;127.22;;;42.13;;
52067;SDS011;60237;52.338;21.228;2023-03-01T06:09:06;169.55;;;44.30;;
52067;SDS011;60237;52.338;21.228;2023-03-01T06:11:35;132.15;;;41.55;;
52067;SDS011;60237;52.338;21.228;2023-03-01T06:14:02;133.70;;;42.80;;
52067;SDS011;60237;52.338;21.228;2023-03-01T06:16:29;135.38;;;42.88;;
52067;SDS011;60237;52.338;21.228;2023-03-01T06:18:56;144.93;;;43.78;;
52067;SDS011;60237;52.338;21.228;2023-03-01T06:21:22;170.82;;;45.92;;
52067;SDS011;60237;52.338;21.228;2023-03-01T06:23:49;139.48;;;43.28;;
52067;SDS011;60237;52.338;21.228;2023-03-01T06:26:15;143.20;;;45.17;;
52067;SDS011;60237;52.338;21.228;2023-03-01T06:28:42;118.32;;;42.03;;
52067;SDS011;60237;52.338;21.228;2023-03-01T06:31:10;141.20;;;42.95;;
52067;SDS011;60237;52.338;21.228;2023-03-01T06:33:37;114.53;;;35.83;;
52067;SDS011;60237;52.338;21.228;2023-03-01T06:36:04;120.53;;;37.60;;
52067;SDS011;60237;52.338;21.228;2023-03-01T06:38:30;114.78;;;34.90;;
52067;SDS011;60237;52.338;21.228;2023-03-01T06:40:56;103.43;;;31.90;;
52067;SDS011;60237;52.338;21.228;2023-03-01T06:43:23;124.20;;;33.90;;
52067;SDS011;60237;52.338;21.228;2023-03-01T06:45:50;112.38;;;31.40;;
52067;SDS011;60237;52.338;21.228;2023-03-01T06:48:16;154.75;;;37.05;;
52067;SDS011;60237;52.338;21.228;2023-03-01T06:50:43;102.90;;;31.95;;
52067;SDS011;60237;52.338;21.228;2023-03-01T06:53:10;104.25;;;32.72;;
52067;SDS011;60237;52.338;21.228;2023-03-01T06:55:36;83.18;;;30.90;;
52067;SDS011;60237;52.338;21.228;2023-03-01T06:58:03;103.25;;;30.58;;
52067;SDS011;60237;52.338;21.228;2023-03-01T07:00:30;126.18;;;35.58;;
52067;SDS011;60237;52.338;21.228;2023-03-01T07:03:00;101.72;;;32.05;;
52067;SDS011;60237;52.338;21.228;2023-03-01T07:05:28;83.03;;;31.60;;
52067;SDS011;60237;52.338;21.228;2023-03-01T07:07:55;107.05;;;34.78;;
52067;SDS011;60237;52.338;21.228;2023-03-01T07:10:22;109.97;;;34.25;;
52067;SDS011;60237;52.338;21.228;2023-03-01T07:12:49;91.47;;;32.78;;
52067;SDS011;60237;52.338;21.228;2023-03-01T07:15:15;100.25;;;31.17;;
52067;SDS011;60237;52.338;21.228;2023-03-01T07:17:42;90.47;;;29.45;;
52067;SDS011;60237;52.338;21.228;2023-03-01T07:20:11;78.18;;;29.23;;
52067;SDS011;60237;52.338;21.228;2023-03-01T07:22:39;97.32;;;32.05;;
52067;SDS011;60237;52.338;21.228;2023-03-01T07:25:05;72.97;;;28.25;;
52067;SDS011;60237;52.338;21.228;2023-03-01T07:27:32;72.35;;;27.45;;
52067;SDS011;60237;52.338;21.228;2023-03-01T07:29:58;87.90;;;28.25;;
52067;SDS011;60237;52.338;21.228;2023-03-01T07:32:25;86.88;;;28.52;;
52067;SDS011;60237;52.338;21.228;2023-03-01T07:34:51;74.78;;;28.33;;
52067;SDS011;60237;52.338;21.228;2023-03-01T07:37:18;86.88;;;27.33;;
52067;SDS011;60237;52.338;21.228;2023-03-01T07:39:44;80.00;;;28.35;;
52067;SDS011;60237;52.338;21.228;2023-03-01T07:42:11;99.95;;;28.85;;
52067;SDS011;60237;52.338;21.228;2023-03-01T07:44:37;192.90;;;31.10;;
52067;SDS011;60237;52.338;21.228;2023-03-01T07:47:03;70.47;;;23.98;;
52067;SDS011;60237;52.338;21.228;2023-03-01T07:49:30;71.57;;;25.55;;
52067;SDS011;60237;52.338;21.228;2023-03-01T07:51:56;86.70;;;25.05;;
52067;SDS011;60237;52.338;21.228;2023-03-01T07:54:23;84.65;;;25.05;;
52067;SDS011;60237;52.338;21.228;2023-03-01T07:56:50;79.30;;;25.45;;
52067;SDS011;60237;52.338;21.228;2023-03-01T07:59:16;91.97;;;26.05;;
52067;SDS011;60237;52.338;21.228;2023-03-01T08:01:43;97.57;;;25.10;;
52067;SDS011;60237;52.338;21.228;2023-03-01T08:04:09;91.38;;;24.73;;
52067;SDS011;60237;52.338;21.228;2023-03-01T08:06:36;72.32;;;22.90;;
52067;SDS011;60237;52.338;21.228;2023-03-01T08:09:03;74.45;;;24.58;;
52067;SDS011;60237;52.338;21.228;2023-03-01T08:11:30;66.25;;;22.75;;
52067;SDS011;60237;52.338;21.228;2023-03-01T08:13:56;74.63;;;23.30;;
52067;SDS011;60237;52.338;21.228;2023-03-01T08:16:23;86.07;;;23.52;;
52067;SDS011;60237;52.338;21.228;2023-03-01T08:18:51;75.82;;;22.15;;
52067;SDS011;60237;52.338;21.228;2023-03-01T08:21:17;79.38;;;22.50;;
52067;SDS011;60237;52.338;21.228;2023-03-01T08:23:44;83.30;;;22.60;;
52067;SDS011;60237;52.338;21.228;2023-03-01T08:26:13;69.30;;;20.15;;
52067;SDS011;60237;52.338;21.228;2023-03-01T08:28:40;67.47;;;20.77;;
52067;SDS011;60237;52.338;21.228;2023-03-01T08:31:40;66.38;;;20.67;;
52067;SDS011;60237;52.338;21.228;2023-03-01T08:34:02;73.88;;;21.55;;
52067;SDS011;60237;52.338;21.228;2023-03-01T08:36:30;70.53;;;21.38;;
52067;SDS011;60237;52.338;21.228;2023-03-01T08:38:58;68.03;;;21.80;;
52067;SDS011;60237;52.338;21.228;2023-03-01T08:41:24;81.47;;;21.02;;
52067;SDS011;60237;52.338;21.228;2023-03-01T08:43:51;68.32;;;19.90;;
52067;SDS011;60237;52.338;21.228;2023-03-01T08:46:18;84.65;;;20.48;;
52067;SDS011;60237;52.338;21.228;2023-03-01T08:48:45;88.57;;;22.10;;
52067;SDS011;60237;52.338;21.228;2023-03-01T08:51:15;89.15;;;22.00;;
52067;SDS011;60237;52.338;21.228;2023-03-01T08:53:45;71.38;;;21.48;;
52067;SDS011;60237;52.338;21.228;2023-03-01T08:56:12;90.95;;;21.70;;
52067;SDS011;60237;52.338;21.228;2023-03-01T08:58:38;74.35;;;21.27;;
52067;SDS011;60237;52.338;21.228;2023-03-01T09:01:06;61.72;;;19.83;;
52067;SDS011;60237;52.338;21.228;2023-03-01T09:03:33;84.75;;;22.48;;
52067;SDS011;60237;52.338;21.228;2023-03-01T09:06:00;67.20;;;20.55;;
52067;SDS011;60237;52.338;21.228;2023-03-01T09:08:27;64.90;;;19.08;;
52067;SDS011;60237;52.338;21.228;2023-03-01T09:10:54;90.75;;;19.55;;
52067;SDS011;60237;52.338;21.228;2023-03-01T09:13:21;73.10;;;19.45;;
52067;SDS011;60237;52.338;21.228;2023-03-01T09:15:50;58.85;;;18.63;;
52067;SDS011;60237;52.338;21.228;2023-03-01T09:18:16;174.25;;;29.67;;
52067;SDS011;60237;52.338;21.228;2023-03-01T09:20:43;64.63;;;19.10;;
52067;SDS011;60237;52.338;21.228;2023-03-01T09:23:09;55.08;;;18.00;;
52067;SDS011;60237;52.338;21.228;2023-03-01T09:25:36;75.63;;;20.35;;
52067;SDS011;60237;52.338;21.228;2023-03-01T09:28:02;47.67;;;18.35;;
52067;SDS011;60237;52.338;21.228;2023-03-01T09:30:29;69.65;;;19.30;;
52067;SDS011;60237;52.338;21.228;2023-03-01T09:32:56;85.90;;;20.63;;
52067;SDS011;60237;52.338;21.228;2023-03-01T09:35:23;54.33;;;17.27;;
52067;SDS011;60237;52.338;21.228;2023-03-01T09:37:49;73.18;;;19.17;;
52067;SDS011;60237;52.338;21.228;2023-03-01T09:40:17;83.10;;;19.88;;
52067;SDS011;60237;52.338;21.228;2023-03-01T09:42:49;54.72;;;16.63;;
52067;SDS011;60237;52.338;21.228;2023-03-01T09:47:44;80.82;;;18.95;;
52067;SDS011;60237;52.338;21.228;2023-03-01T09:50:15;48.28;;;18.70;;
52067;SDS011;60237;52.338;21.228;2023-03-01T09:52:46;66.47;;;19.20;;
52067;SDS011;60237;52.338;21.228;2023-03-01T09:55:14;64.80;;;18.20;;
52067;SDS011;60237;52.338;21.228;2023-03-01T10:00:26;70.03;;;18.65;;
52067;SDS011;60237;52.338;21.228;2023-03-01T10:07:58;72.37;;;19.63;;
52067;SDS011;60237;52.338;21.228;2023-03-01T10:10:32;51.58;;;16.95;;
52067;SDS011;60237;52.338;21.228;2023-03-01T10:13:04;71.75;;;18.58;;
52067;SDS011;60237;52.338;21.228;2023-03-01T10:15:35;45.40;;;15.98;;
52067;SDS011;60237;52.338;21.228;2023-03-01T10:18:10;56.35;;;17.38;;
52067;SDS011;60237;52.338;21.228;2023-03-01T10:20:43;47.53;;;16.45;;
52067;SDS011;60237;52.338;21.228;2023-03-01T10:23:12;52.20;;;17.35;;
52067;SDS011;60237;52.338;21.228;2023-03-01T10:25:54;86.15;;;21.08;;
52067;SDS011;60237;52.338;21.228;2023-03-01T10:30:49;86.90;;;20.70;;
52067;SDS011;60237;52.338;21.228;2023-03-01T10:35:42;61.45;;;19.45;;
52067;SDS011;60237;52.338;21.228;2023-03-01T10:38:10;73.07;;;20.92;;
52067;SDS011;60237;52.338;21.228;2023-03-01T10:40:49;55.55;;;18.55;;
52067;SDS011;60237;52.338;21.228;2023-03-01T10:43:16;80.40;;;20.98;;
52067;SDS011;60237;52.338;21.228;2023-03-01T10:45:43;74.38;;;20.13;;
52067;SDS011;60237;52.338;21.228;2023-03-01T10:48:17;80.18;;;19.60;;
52067;SDS011;60237;52.338;21.228;2023-03-01T10:51:05;73.38;;;18.85;;
52067;SDS011;60237;52.338;21.228;2023-03-01T10:53:33;48.75;;;16.88;;
52067;SDS011;60237;52.338;21.228;2023-03-01T10:56:01;70.85;;;18.42;;
52067;SDS011;60237;52.338;21.228;2023-03-01T10:58:28;60.10;;;17.38;;
52067;SDS011;60237;52.338;21.228;2023-03-01T11:00:56;69.35;;;17.77;;
52067;SDS011;60237;52.338;21.228;2023-03-01T11:03:24;108.43;;;22.10;;
52067;SDS011;60237;52.338;21.228;2023-03-01T11:06:03;68.40;;;18.88;;
52067;SDS011;60237;52.338;21.228;2023-03-01T11:13:32;47.75;;;16.33;;
52067;SDS011;60237;52.338;21.228;2023-03-01T11:16:03;69.80;;;16.63;;
52067;SDS011;60237;52.338;21.228;2023-03-01T11:18:31;62.17;;;18.10;;
52067;SDS011;60237;52.338;21.228;2023-03-01T11:21:13;84.50;;;16.92;;
52067;SDS011;60237;52.338;21.228;2023-03-01T11:23:40;66.13;;;16.67;;
52067;SDS011;60237;52.338;21.228;2023-03-01T11:26:08;45.53;;;15.10;;
52067;SDS011;60237;52.338;21.228;2023-03-01T11:28:37;76.45;;;18.10;;
52067;SDS011;60237;52.338;21.228;2023-03-01T11:31:06;44.40;;;15.38;;
52067;SDS011;60237;52.338;21.228;2023-03-01T11:33:43;55.17;;;15.13;;
52067;SDS011;60237;52.338;21.228;2023-03-01T11:38:49;56.35;;;15.52;;
52067;SDS011;60237;52.338;21.228;2023-03-01T11:41:20;89.65;;;18.77;;
52067;SDS011;60237;52.338;21.228;2023-03-01T11:43:51;69.72;;;15.85;;
52067;SDS011;60237;52.338;21.228;2023-03-01T11:54:19;77.50;;;17.52;;
52067;SDS011;60237;52.338;21.228;2023-03-01T11:56:48;56.47;;;15.70;;
52067;SDS011;60237;52.338;21.228;2023-03-01T12:04:23;62.40;;;17.48;;
52067;SDS011;60237;52.338;21.228;2023-03-01T12:06:56;85.60;;;18.95;;
52067;SDS011;60237;52.338;21.228;2023-03-01T12:14:59;82.00;;;18.63;;
52067;SDS011;60237;52.338;21.228;2023-03-01T12:20:14;51.00;;;16.20;;
52067;SDS011;60237;52.338;21.228;2023-03-01T12:25:36;49.88;;;15.77;;
52067;SDS011;60237;52.338;21.228;2023-03-01T12:28:16;59.75;;;16.63;;
52067;SDS011;60237;52.338;21.228;2023-03-01T12:33:22;74.63;;;21.63;;
52067;SDS011;60237;52.338;21.228;2023-03-01T12:35:54;87.20;;;19.83;;
52067;SDS011;60237;52.338;21.228;2023-03-01T12:41:22;63.70;;;16.88;;
52067;SDS011;60237;52.338;21.228;2023-03-01T12:43:58;53.60;;;15.15;;
52067;SDS011;60237;52.338;21.228;2023-03-01T12:49:13;65.90;;;16.50;;
52067;SDS011;60237;52.338;21.228;2023-03-01T12:51:43;61.42;;;17.55;;
52067;SDS011;60237;52.338;21.228;2023-03-01T12:54:17;72.47;;;17.63;;
52067;SDS011;60237;52.338;21.228;2023-03-01T12:56:47;57.15;;;16.13;;
52067;SDS011;60237;52.338;21.228;2023-03-01T12:59:42;53.40;;;14.20;;
52067;SDS011;60237;52.338;21.228;2023-03-01T13:05:01;44.72;;;13.93;;
52067;SDS011;60237;52.338;21.228;2023-03-01T13:10:05;78.25;;;14.40;;
52067;SDS011;60237;52.338;21.228;2023-03-01T13:17:49;70.38;;;15.68;;
52067;SDS011;60237;52.338;21.228;2023-03-01T13:20:16;67.75;;;15.50;;
52067;SDS011;60237;52.338;21.228;2023-03-01T13:22:43;46.33;;;14.43;;
52067;SDS011;60237;52.338;21.228;2023-03-01T13:25:20;72.53;;;15.98;;
52067;SDS011;60237;52.338;21.228;2023-03-01T13:27:51;64.85;;;15.05;;
52067;SDS011;60237;52.338;21.228;2023-03-01T13:36:03;59.53;;;14.63;;
52067;SDS011;60237;52.338;21.228;2023-03-01T13:41:03;48.10;;;15.18;;
52067;SDS011;60237;52.338;21.228;2023-03-01T13:43:32;58.70;;;14.68;;
52067;SDS011;60237;52.338;21.228;2023-03-01T13:45:58;49.35;;;13.27;;
52067;SDS011;60237;52.338;21.228;2023-03-01T13:48:27;99.57;;;16.80;;
52067;SDS011;60237;52.338;21.228;2023-03-01T13:51:09;58.13;;;12.60;;
52067;SDS011;60237;52.338;21.228;2023-03-01T13:53:39;51.43;;;12.03;;
52067;SDS011;60237;52.338;21.228;2023-03-01T13:58:33;75.80;;;16.15;;
52067;SDS011;60237;52.338;21.228;2023-03-01T14:01:23;61.25;;;12.45;;
52067;SDS011;60237;52.338;21.228;2023-03-01T14:03:50;56.38;;;12.02;;
52067;SDS011;60237;52.338;21.228;2023-03-01T14:06:19;79.28;;;14.32;;
52067;SDS011;60237;52.338;21.228;2023-03-01T14:08:47;46.08;;;13.27;;
52067;SDS011;60237;52.338;21.228;2023-03-01T14:14:21;51.85;;;13.50;;
52067;SDS011;60237;52.338;21.228;2023-03-01T14:16:53;58.13;;;12.32;;
52067;SDS011;60237;52.338;21.228;2023-03-01T14:19:23;58.45;;;13.13;;
52067;SDS011;60237;52.338;21.228;2023-03-01T14:24:30;63.80;;;17.45;;
52067;SDS011;60237;52.338;21.228;2023-03-01T14:27:00;82.20;;;22.25;;
52067;SDS011;60237;52.338;21.228;2023-03-01T14:29:32;58.00;;;14.60;;
52067;SDS011;60237;52.338;21.228;2023-03-01T14:32:08;79.45;;;18.38;;
52067;SDS011;60237;52.338;21.228;2023-03-01T14:34:34;40.67;;;13.30;;
52067;SDS011;60237;52.338;21.228;2023-03-01T14:39:58;69.28;;;16.48;;
52067;SDS011;60237;52.338;21.228;2023-03-01T14:42:27;83.43;;;16.33;;
52067;SDS011;60237;52.338;21.228;2023-03-01T14:44:55;78.53;;;16.58;;
52067;SDS011;60237;52.338;21.228;2023-03-01T14:49:52;58.60;;;14.57;;
52067;SDS011;60237;52.338;21.228;2023-03-01T14:52:21;64.75;;;17.83;;
52067;SDS011;60237;52.338;21.228;2023-03-01T14:54:48;87.20;;;18.83;;
52067;SDS011;60237;52.338;21.228;2023-03-01T14:57:17;61.00;;;17.25;;
52067;SDS011;60237;52.338;21.228;2023-03-01T14:59:43;89.57;;;19.00;;
52067;SDS011;60237;52.338;21.228;2023-03-01T15:02:12;68.90;;;16.13;;
52067;SDS011;60237;52.338;21.228;2023-03-01T15:04:45;57.97;;;16.65;;
52067;SDS011;60237;52.338;21.228;2023-03-01T15:07:12;58.90;;;16.73;;
52067;SDS011;60237;52.338;21.228;2023-03-01T15:09:40;81.55;;;18.73;;
52067;SDS011;60237;52.338;21.228;2023-03-01T15:14:52;84.95;;;19.77;;
52067;SDS011;60237;52.338;21.228;2023-03-01T15:17:36;47.13;;;16.17;;
52067;SDS011;60237;52.338;21.228;2023-03-01T15:20:05;59.35;;;17.40;;
52067;SDS011;60237;52.338;21.228;2023-03-01T15:22:32;76.63;;;19.42;;
52067;SDS011;60237;52.338;21.228;2023-03-01T15:24:59;51.25;;;17.17;;
52067;SDS011;60237;52.338;21.228;2023-03-01T15:27:25;77.65;;;18.48;;
52067;SDS011;60237;52.338;21.228;2023-03-01T15:29:54;74.03;;;17.25;;
52067;SDS011;60237;52.338;21.228;2023-03-01T15:32:35;73.75;;;19.40;;
52067;SDS011;60237;52.338;21.228;2023-03-01T15:37:48;151.95;;;25.08;;
52067;SDS011;60237;52.338;21.228;2023-03-01T15:40:19;72.18;;;19.83;;
52067;SDS011;60237;52.338;21.228;2023-03-01T15:42:47;55.65;;;17.55;;
52067;SDS011;60237;52.338;21.228;2023-03-01T15:47:47;70.20;;;19.92;;
52067;SDS011;60237;52.338;21.228;2023-03-01T15:50:16;63.38;;;20.58;;
52067;SDS011;60237;52.338;21.228;2023-03-01T15:52:43;91.55;;;22.17;;
52067;SDS011;60237;52.338;21.228;2023-03-01T15:55:17;65.05;;;22.73;;
52067;SDS011;60237;52.338;21.228;2023-03-01T15:57:45;84.65;;;25.65;;
52067;SDS011;60237;52.338;21.228;2023-03-01T16:00:12;89.63;;;28.90;;
52067;SDS011;60237;52.338;21.228;2023-03-01T16:02:40;86.60;;;29.88;;